PADK Airport Information

Runway Information
Runway 05 Length 7790 ft width 200 ft
Elevation 17 ft Threshold 0 ft Heading 61
Runway 23 Length 7790 ft Width 200 ft
Elevation 15 ft Threshold 0 ft Heading 241
Runway 18 Length 7605 ft width 200 ft
Elevation 6 ft Threshold 0 ft Heading 185
Runway 36 Length 7605 ft Width 200 ft
Elevation 4 ft Threshold 0 ft Heading 5
Airport Frequencies
Airport Navaids
Type NDB-DME Name Mount Moffett Frequency 530 KHZ
Type TACAN Name Adak Frequency 113000 KHZ
Airport Weather Information & NOTAM
ADDS - METARS form results

(2011 UTC 18 January 2019)
Data provider http://aviationweather.gov/metar/data/
 
METAR text: PADK 181956Z AUTO 14013KT 10SM OVC034 01/M06 A2999 RMK AO2 SLP155 T00061056 FZRANO
Conditions at: PADK (ADAK NAS , AK, US) observed 1956 UTC 18 January 2019
Temperature: 0.6°C (33°F)
Dewpoint: -5.6°C (22°F) [RH = 63%]
Pressure (altimeter): 29.99 inches Hg (1015.7 mb)
[Sea-level pressure: 1015.5 mb]
Winds: from the SE (140 degrees) at 15 MPH (13 knots; 6.7 m/s)
Visibility: 10 or more miles (16+ km)
Ceiling: 3400 feet AGL
Clouds: overcast cloud deck at 3400 feet AGL
Weather: automated observation with no human augmentation;
there may or may not be significant weather present at this time